Portada
METAR-TAF:

METAR-TAF

Aeroports :

Manado, Indonèsia

latitud: 01-32N, longitud: 124-55E, altitud: 80 m

Observació

L'informe es va fer fa 10 minuts, a les 17:30 UTC
Vent calma
Temperatura 23°C
Humitat 100%
Pressió 1010 hPa
Visibilitat: 9000 m
Núvols disperses a una alçada de 2100 ft

METAR: WAMM 261730Z 00000KT 9000 SCT021 23/23 Q1010 NOSIG

Hora: 00:40 (17:40 UTC)

Pronòstic

L'informe es va fer fa 40 minuts, a les 17:00 UTC
Pronòstic vàlid del 26 a les 18 UTC al 27 a les 24 UTC
Vent 3 kt amb direcció variable
Visibilitat 10 km o més
Núvols disperses a una alçada de 2200 ft
Evolucionant progressivament
l' 27 a les 02 UTC al 27 a les 04 UTC
Vent 10 kt del Nord

TAF: WAMM 261700Z 2618/2724 VRB03KT 9999 SCT022 BECMG 2702/2704 35010KT

Observacions i pronòstics meteorològics de més de 4000 aeroports (METAR i TAF).

Les estacions disponibles són els punts grocs i vermells al mapa.

Posi el ratolí al punt desitjat per veure el nom de l'estació.

Feu clic per veure les observacions i els pronòstics meteorològics.

Per canviar el mapa: feu clic els botons verds amb una creu de color negre per apropar; al botó verd amb un guió per allunyar la imatge; o en les fletxes verdes per a mapes adjacents.


METAR-TAF: